sensor_id;sensor_type;location;lat;lon;timestamp;P1;durP1;ratioP1;P2;durP2;ratioP2
17686;SDS011;8962;52.538;13.266;2022-09-09T00:00:25;12.10;;;10.27;;
17686;SDS011;8962;52.538;13.266;2022-09-09T00:02:59;13.02;;;9.48;;
17686;SDS011;8962;52.538;13.266;2022-09-09T00:05:36;11.23;;;9.82;;
17686;SDS011;8962;52.538;13.266;2022-09-09T00:08:12;12.20;;;10.32;;
17686;SDS011;8962;52.538;13.266;2022-09-09T00:10:50;11.82;;;10.63;;
17686;SDS011;8962;52.538;13.266;2022-09-09T00:13:27;13.27;;;10.55;;
17686;SDS011;8962;52.538;13.266;2022-09-09T00:16:02;14.55;;;11.10;;
17686;SDS011;8962;52.538;13.266;2022-09-09T00:18:37;14.32;;;11.23;;
17686;SDS011;8962;52.538;13.266;2022-09-09T00:21:14;13.40;;;11.38;;
17686;SDS011;8962;52.538;13.266;2022-09-09T00:23:45;15.48;;;11.63;;
17686;SDS011;8962;52.538;13.266;2022-09-09T00:26:20;14.00;;;11.82;;
17686;SDS011;8962;52.538;13.266;2022-09-09T00:29:01;16.05;;;12.50;;
17686;SDS011;8962;52.538;13.266;2022-09-09T00:31:35;16.15;;;12.55;;
17686;SDS011;8962;52.538;13.266;2022-09-09T00:34:05;15.70;;;12.18;;
17686;SDS011;8962;52.538;13.266;2022-09-09T00:36:38;17.65;;;13.07;;
17686;SDS011;8962;52.538;13.266;2022-09-09T00:39:23;18.40;;;13.85;;
17686;SDS011;8962;52.538;13.266;2022-09-09T00:42:10;16.80;;;12.95;;
17686;SDS011;8962;52.538;13.266;2022-09-09T00:44:48;19.35;;;13.73;;
17686;SDS011;8962;52.538;13.266;2022-09-09T00:47:24;19.08;;;14.77;;
17686;SDS011;8962;52.538;13.266;2022-09-09T00:50:03;17.48;;;14.13;;
17686;SDS011;8962;52.538;13.266;2022-09-09T00:52:39;15.13;;;13.18;;
17686;SDS011;8962;52.538;13.266;2022-09-09T00:55:16;20.35;;;14.65;;
17686;SDS011;8962;52.538;13.266;2022-09-09T00:57:54;20.48;;;15.43;;
17686;SDS011;8962;52.538;13.266;2022-09-09T01:00:30;20.67;;;15.45;;
17686;SDS011;8962;52.538;13.266;2022-09-09T01:03:05;18.38;;;14.23;;
17686;SDS011;8962;52.538;13.266;2022-09-09T01:05:57;17.73;;;14.50;;
17686;SDS011;8962;52.538;13.266;2022-09-09T01:08:43;21.23;;;14.88;;
17686;SDS011;8962;52.538;13.266;2022-09-09T01:11:40;18.38;;;14.57;;
17686;SDS011;8962;52.538;13.266;2022-09-09T01:14:30;18.80;;;13.95;;
17686;SDS011;8962;52.538;13.266;2022-09-09T01:17:14;19.33;;;15.00;;
17686;SDS011;8962;52.538;13.266;2022-09-09T01:19:55;17.08;;;14.13;;
17686;SDS011;8962;52.538;13.266;2022-09-09T01:22:42;16.77;;;14.10;;
17686;SDS011;8962;52.538;13.266;2022-09-09T01:25:21;18.98;;;13.73;;
17686;SDS011;8962;52.538;13.266;2022-09-09T01:28:19;20.60;;;15.13;;
17686;SDS011;8962;52.538;13.266;2022-09-09T01:30:57;16.90;;;13.50;;
17686;SDS011;8962;52.538;13.266;2022-09-09T01:33:28;19.35;;;15.00;;
17686;SDS011;8962;52.538;13.266;2022-09-09T01:35:59;19.38;;;14.25;;
17686;SDS011;8962;52.538;13.266;2022-09-09T01:38:38;19.98;;;14.27;;
17686;SDS011;8962;52.538;13.266;2022-09-09T01:41:11;17.13;;;13.82;;
17686;SDS011;8962;52.538;13.266;2022-09-09T01:43:46;21.02;;;15.13;;
17686;SDS011;8962;52.538;13.266;2022-09-09T01:46:16;20.23;;;15.15;;
17686;SDS011;8962;52.538;13.266;2022-09-09T01:48:47;21.35;;;15.65;;
17686;SDS011;8962;52.538;13.266;2022-09-09T01:51:16;19.60;;;15.20;;
17686;SDS011;8962;52.538;13.266;2022-09-09T01:53:43;22.00;;;16.33;;
17686;SDS011;8962;52.538;13.266;2022-09-09T01:56:21;21.08;;;15.05;;
17686;SDS011;8962;52.538;13.266;2022-09-09T02:01:55;21.17;;;15.43;;
17686;SDS011;8962;52.538;13.266;2022-09-09T02:04:36;18.13;;;14.10;;
17686;SDS011;8962;52.538;13.266;2022-09-09T02:07:17;20.90;;;14.13;;
17686;SDS011;8962;52.538;13.266;2022-09-09T02:10:11;22.33;;;14.60;;
17686;SDS011;8962;52.538;13.266;2022-09-09T02:12:53;21.45;;;14.95;;
17686;SDS011;8962;52.538;13.266;2022-09-09T02:15:33;20.83;;;14.68;;
17686;SDS011;8962;52.538;13.266;2022-09-09T02:18:06;16.88;;;13.73;;
17686;SDS011;8962;52.538;13.266;2022-09-09T02:20:39;16.77;;;13.75;;
17686;SDS011;8962;52.538;13.266;2022-09-09T02:23:09;15.90;;;13.10;;
17686;SDS011;8962;52.538;13.266;2022-09-09T02:25:50;18.95;;;13.77;;
17686;SDS011;8962;52.538;13.266;2022-09-09T02:28:23;19.00;;;13.55;;
17686;SDS011;8962;52.538;13.266;2022-09-09T02:31:05;17.75;;;13.27;;
17686;SDS011;8962;52.538;13.266;2022-09-09T02:33:41;15.07;;;12.55;;
17686;SDS011;8962;52.538;13.266;2022-09-09T02:36:15;18.15;;;13.32;;
17686;SDS011;8962;52.538;13.266;2022-09-09T02:38:45;18.95;;;13.38;;
17686;SDS011;8962;52.538;13.266;2022-09-09T02:41:17;16.63;;;13.23;;
17686;SDS011;8962;52.538;13.266;2022-09-09T02:43:48;18.25;;;13.48;;
17686;SDS011;8962;52.538;13.266;2022-09-09T02:46:23;17.90;;;13.63;;
17686;SDS011;8962;52.538;13.266;2022-09-09T02:49:00;17.67;;;13.40;;
17686;SDS011;8962;52.538;13.266;2022-09-09T02:51:37;17.85;;;13.52;;
17686;SDS011;8962;52.538;13.266;2022-09-09T02:54:17;20.45;;;15.02;;
17686;SDS011;8962;52.538;13.266;2022-09-09T02:56:53;20.17;;;14.38;;
17686;SDS011;8962;52.538;13.266;2022-09-09T02:59:35;18.05;;;14.57;;
17686;SDS011;8962;52.538;13.266;2022-09-09T03:02:04;18.83;;;12.90;;
17686;SDS011;8962;52.538;13.266;2022-09-09T03:04:35;14.82;;;12.40;;
17686;SDS011;8962;52.538;13.266;2022-09-09T03:07:03;19.35;;;14.30;;
17686;SDS011;8962;52.538;13.266;2022-09-09T03:09:41;18.13;;;14.02;;
17686;SDS011;8962;52.538;13.266;2022-09-09T03:12:09;19.27;;;13.52;;
17686;SDS011;8962;52.538;13.266;2022-09-09T03:14:37;16.83;;;13.18;;
17686;SDS011;8962;52.538;13.266;2022-09-09T03:17:08;17.63;;;12.88;;
17686;SDS011;8962;52.538;13.266;2022-09-09T03:19:42;16.92;;;13.52;;
17686;SDS011;8962;52.538;13.266;2022-09-09T03:22:14;14.98;;;11.82;;
17686;SDS011;8962;52.538;13.266;2022-09-09T03:24:45;15.38;;;11.30;;
17686;SDS011;8962;52.538;13.266;2022-09-09T03:27:14;16.17;;;12.45;;
17686;SDS011;8962;52.538;13.266;2022-09-09T03:29:43;13.70;;;11.18;;
17686;SDS011;8962;52.538;13.266;2022-09-09T03:32:20;15.80;;;12.18;;
17686;SDS011;8962;52.538;13.266;2022-09-09T03:34:48;16.60;;;11.48;;
17686;SDS011;8962;52.538;13.266;2022-09-09T03:37:16;17.08;;;12.35;;
17686;SDS011;8962;52.538;13.266;2022-09-09T03:39:44;15.10;;;11.60;;
17686;SDS011;8962;52.538;13.266;2022-09-09T03:42:14;19.33;;;12.38;;
17686;SDS011;8962;52.538;13.266;2022-09-09T03:44:47;15.77;;;12.52;;
17686;SDS011;8962;52.538;13.266;2022-09-09T03:47:24;17.98;;;13.23;;
17686;SDS011;8962;52.538;13.266;2022-09-09T03:49:56;18.55;;;12.43;;
17686;SDS011;8962;52.538;13.266;2022-09-09T03:52:25;16.63;;;12.20;;
17686;SDS011;8962;52.538;13.266;2022-09-09T03:54:54;17.42;;;12.75;;
17686;SDS011;8962;52.538;13.266;2022-09-09T03:57:22;20.42;;;13.57;;
17686;SDS011;8962;52.538;13.266;2022-09-09T03:59:51;17.75;;;12.25;;
17686;SDS011;8962;52.538;13.266;2022-09-09T04:02:21;16.95;;;10.98;;
17686;SDS011;8962;52.538;13.266;2022-09-09T04:04:51;15.00;;;11.27;;
17686;SDS011;8962;52.538;13.266;2022-09-09T04:07:20;15.27;;;11.18;;
17686;SDS011;8962;52.538;13.266;2022-09-09T04:09:48;13.75;;;11.32;;
17686;SDS011;8962;52.538;13.266;2022-09-09T04:12:20;15.23;;;10.65;;
17686;SDS011;8962;52.538;13.266;2022-09-09T04:14:51;16.55;;;10.13;;
17686;SDS011;8962;52.538;13.266;2022-09-09T04:17:20;17.60;;;10.40;;
17686;SDS011;8962;52.538;13.266;2022-09-09T04:19:51;14.32;;;9.88;;
17686;SDS011;8962;52.538;13.266;2022-09-09T04:22:22;13.60;;;10.05;;
17686;SDS011;8962;52.538;13.266;2022-09-09T04:24:50;12.13;;;9.52;;
17686;SDS011;8962;52.538;13.266;2022-09-09T04:27:18;14.77;;;10.45;;
17686;SDS011;8962;52.538;13.266;2022-09-09T04:29:46;14.20;;;11.40;;
17686;SDS011;8962;52.538;13.266;2022-09-09T04:32:13;15.73;;;11.32;;
17686;SDS011;8962;52.538;13.266;2022-09-09T04:34:43;16.42;;;10.63;;
17686;SDS011;8962;52.538;13.266;2022-09-09T04:37:11;14.32;;;10.05;;
17686;SDS011;8962;52.538;13.266;2022-09-09T04:39:39;14.43;;;9.73;;
17686;SDS011;8962;52.538;13.266;2022-09-09T04:42:09;12.85;;;10.50;;
17686;SDS011;8962;52.538;13.266;2022-09-09T04:44:39;20.17;;;11.55;;
17686;SDS011;8962;52.538;13.266;2022-09-09T04:47:07;17.92;;;11.18;;
17686;SDS011;8962;52.538;13.266;2022-09-09T04:49:35;18.55;;;10.75;;
17686;SDS011;8962;52.538;13.266;2022-09-09T04:52:06;15.75;;;10.32;;
17686;SDS011;8962;52.538;13.266;2022-09-09T04:54:38;16.00;;;10.57;;
17686;SDS011;8962;52.538;13.266;2022-09-09T04:57:10;15.50;;;10.30;;
17686;SDS011;8962;52.538;13.266;2022-09-09T04:59:43;15.68;;;10.23;;
17686;SDS011;8962;52.538;13.266;2022-09-09T05:02:13;15.55;;;9.77;;
17686;SDS011;8962;52.538;13.266;2022-09-09T05:04:42;12.73;;;9.35;;
17686;SDS011;8962;52.538;13.266;2022-09-09T05:07:11;13.93;;;10.50;;
17686;SDS011;8962;52.538;13.266;2022-09-09T05:09:44;12.68;;;8.75;;
17686;SDS011;8962;52.538;13.266;2022-09-09T05:12:15;10.93;;;8.88;;
17686;SDS011;8962;52.538;13.266;2022-09-09T05:14:48;20.17;;;11.57;;
17686;SDS011;8962;52.538;13.266;2022-09-09T05:17:18;11.68;;;8.75;;
17686;SDS011;8962;52.538;13.266;2022-09-09T05:19:49;11.80;;;8.30;;
17686;SDS011;8962;52.538;13.266;2022-09-09T05:22:18;11.25;;;7.65;;
17686;SDS011;8962;52.538;13.266;2022-09-09T05:24:53;9.68;;;8.13;;
17686;SDS011;8962;52.538;13.266;2022-09-09T05:27:25;10.80;;;7.82;;
17686;SDS011;8962;52.538;13.266;2022-09-09T05:29:52;10.32;;;7.95;;
17686;SDS011;8962;52.538;13.266;2022-09-09T05:32:27;10.75;;;6.88;;
17686;SDS011;8962;52.538;13.266;2022-09-09T05:34:59;11.27;;;7.72;;
17686;SDS011;8962;52.538;13.266;2022-09-09T05:37:26;11.80;;;7.68;;
17686;SDS011;8962;52.538;13.266;2022-09-09T05:40:06;9.30;;;6.80;;
17686;SDS011;8962;52.538;13.266;2022-09-09T05:42:36;11.25;;;7.68;;
17686;SDS011;8962;52.538;13.266;2022-09-09T05:45:05;9.32;;;6.82;;
17686;SDS011;8962;52.538;13.266;2022-09-09T05:47:37;10.45;;;7.20;;
17686;SDS011;8962;52.538;13.266;2022-09-09T05:50:08;13.63;;;7.60;;
17686;SDS011;8962;52.538;13.266;2022-09-09T05:52:39;9.00;;;6.82;;
17686;SDS011;8962;52.538;13.266;2022-09-09T05:55:09;12.32;;;7.15;;
17686;SDS011;8962;52.538;13.266;2022-09-09T05:57:37;194.75;;;63.67;;
17686;SDS011;8962;52.538;13.266;2022-09-09T06:00:06;30.60;;;13.77;;
17686;SDS011;8962;52.538;13.266;2022-09-09T06:02:49;13.80;;;8.75;;
17686;SDS011;8962;52.538;13.266;2022-09-09T06:05:19;10.73;;;6.88;;
17686;SDS011;8962;52.538;13.266;2022-09-09T06:07:52;14.63;;;7.25;;
17686;SDS011;8962;52.538;13.266;2022-09-09T06:10:23;8.50;;;5.57;;
17686;SDS011;8962;52.538;13.266;2022-09-09T06:12:52;7.70;;;5.80;;
17686;SDS011;8962;52.538;13.266;2022-09-09T06:15:22;8.38;;;5.57;;
17686;SDS011;8962;52.538;13.266;2022-09-09T06:17:53;9.40;;;5.60;;
17686;SDS011;8962;52.538;13.266;2022-09-09T06:20:21;10.38;;;8.07;;
17686;SDS011;8962;52.538;13.266;2022-09-09T06:22:57;7.78;;;5.55;;
17686;SDS011;8962;52.538;13.266;2022-09-09T06:25:30;14.90;;;6.90;;
17686;SDS011;8962;52.538;13.266;2022-09-09T06:28:00;10.27;;;7.38;;
17686;SDS011;8962;52.538;13.266;2022-09-09T06:30:28;8.65;;;5.85;;
17686;SDS011;8962;52.538;13.266;2022-09-09T06:32:55;10.35;;;6.63;;
17686;SDS011;8962;52.538;13.266;2022-09-09T06:35:23;8.20;;;5.00;;
17686;SDS011;8962;52.538;13.266;2022-09-09T06:37:55;7.38;;;4.47;;
17686;SDS011;8962;52.538;13.266;2022-09-09T06:40:24;5.75;;;4.43;;
17686;SDS011;8962;52.538;13.266;2022-09-09T06:42:59;7.10;;;4.28;;
17686;SDS011;8962;52.538;13.266;2022-09-09T06:45:34;10.73;;;4.18;;
17686;SDS011;8962;52.538;13.266;2022-09-09T06:48:02;8.43;;;4.47;;
17686;SDS011;8962;52.538;13.266;2022-09-09T06:50:34;7.20;;;4.78;;
17686;SDS011;8962;52.538;13.266;2022-09-09T06:53:01;6.32;;;4.00;;
17686;SDS011;8962;52.538;13.266;2022-09-09T06:55:32;7.30;;;4.25;;
17686;SDS011;8962;52.538;13.266;2022-09-09T06:58:01;6.85;;;3.88;;
17686;SDS011;8962;52.538;13.266;2022-09-09T07:00:48;13.05;;;5.10;;
17686;SDS011;8962;52.538;13.266;2022-09-09T07:03:18;6.07;;;3.78;;
17686;SDS011;8962;52.538;13.266;2022-09-09T07:05:53;5.75;;;3.55;;
17686;SDS011;8962;52.538;13.266;2022-09-09T07:08:23;8.77;;;3.70;;
17686;SDS011;8962;52.538;13.266;2022-09-09T07:10:54;6.55;;;3.70;;
17686;SDS011;8962;52.538;13.266;2022-09-09T07:13:27;7.03;;;3.80;;
17686;SDS011;8962;52.538;13.266;2022-09-09T07:16:06;8.57;;;3.78;;
17686;SDS011;8962;52.538;13.266;2022-09-09T07:18:35;11.05;;;4.15;;
17686;SDS011;8962;52.538;13.266;2022-09-09T07:21:02;7.43;;;3.08;;
17686;SDS011;8962;52.538;13.266;2022-09-09T07:23:30;6.97;;;3.17;;
17686;SDS011;8962;52.538;13.266;2022-09-09T07:26:02;5.88;;;3.60;;
17686;SDS011;8962;52.538;13.266;2022-09-09T07:28:34;9.85;;;3.50;;
17686;SDS011;8962;52.538;13.266;2022-09-09T07:31:13;4.93;;;3.03;;
17686;SDS011;8962;52.538;13.266;2022-09-09T07:33:44;3.80;;;2.42;;
17686;SDS011;8962;52.538;13.266;2022-09-09T07:36:13;8.00;;;3.47;;
17686;SDS011;8962;52.538;13.266;2022-09-09T07:38:43;6.50;;;2.40;;
17686;SDS011;8962;52.538;13.266;2022-09-09T07:41:14;7.20;;;2.65;;
17686;SDS011;8962;52.538;13.266;2022-09-09T07:43:46;6.57;;;2.90;;
17686;SDS011;8962;52.538;13.266;2022-09-09T07:46:17;6.47;;;3.10;;
17686;SDS011;8962;52.538;13.266;2022-09-09T07:48:47;5.43;;;2.15;;
17686;SDS011;8962;52.538;13.266;2022-09-09T07:51:18;8.35;;;3.78;;
17686;SDS011;8962;52.538;13.266;2022-09-09T07:53:51;4.45;;;2.00;;
17686;SDS011;8962;52.538;13.266;2022-09-09T07:56:22;5.40;;;2.47;;
17686;SDS011;8962;52.538;13.266;2022-09-09T07:58:54;8.02;;;3.25;;
17686;SDS011;8962;52.538;13.266;2022-09-09T08:01:24;4.65;;;2.10;;
17686;SDS011;8962;52.538;13.266;2022-09-09T08:03:56;4.55;;;1.95;;
17686;SDS011;8962;52.538;13.266;2022-09-09T08:06:31;8.07;;;2.45;;
17686;SDS011;8962;52.538;13.266;2022-09-09T08:09:01;10.45;;;2.55;;
17686;SDS011;8962;52.538;13.266;2022-09-09T08:11:34;4.60;;;2.13;;
17686;SDS011;8962;52.538;13.266;2022-09-09T08:14:05;6.10;;;2.10;;
17686;SDS011;8962;52.538;13.266;2022-09-09T08:16:37;6.00;;;2.00;;
17686;SDS011;8962;52.538;13.266;2022-09-09T08:19:10;3.97;;;1.60;;
17686;SDS011;8962;52.538;13.266;2022-09-09T08:21:39;5.28;;;2.15;;
17686;SDS011;8962;52.538;13.266;2022-09-09T08:24:10;5.53;;;1.98;;
17686;SDS011;8962;52.538;13.266;2022-09-09T08:26:41;6.28;;;1.90;;
17686;SDS011;8962;52.538;13.266;2022-09-09T08:29:12;2.75;;;1.70;;
17686;SDS011;8962;52.538;13.266;2022-09-09T08:31:41;4.55;;;2.00;;
17686;SDS011;8962;52.538;13.266;2022-09-09T08:34:10;4.07;;;2.00;;
17686;SDS011;8962;52.538;13.266;2022-09-09T08:36:40;4.30;;;1.88;;
17686;SDS011;8962;52.538;13.266;2022-09-09T08:39:28;3.70;;;1.90;;
17686;SDS011;8962;52.538;13.266;2022-09-09T08:42:17;5.13;;;2.17;;
17686;SDS011;8962;52.538;13.266;2022-09-09T08:45:02;4.13;;;2.00;;
17686;SDS011;8962;52.538;13.266;2022-09-09T08:47:47;6.20;;;2.60;;
17686;SDS011;8962;52.538;13.266;2022-09-09T08:50:24;3.63;;;1.85;;
17686;SDS011;8962;52.538;13.266;2022-09-09T08:53:03;3.50;;;2.00;;
17686;SDS011;8962;52.538;13.266;2022-09-09T08:55:37;3.33;;;1.63;;
17686;SDS011;8962;52.538;13.266;2022-09-09T08:58:13;6.47;;;2.70;;
17686;SDS011;8962;52.538;13.266;2022-09-09T09:00:57;5.45;;;3.13;;
17686;SDS011;8962;52.538;13.266;2022-09-09T09:04:14;6.38;;;2.78;;
17686;SDS011;8962;52.538;13.266;2022-09-09T09:07:00;5.80;;;2.40;;
17686;SDS011;8962;52.538;13.266;2022-09-09T09:09:41;8.00;;;3.00;;
17686;SDS011;8962;52.538;13.266;2022-09-09T09:12:19;5.40;;;2.45;;
17686;SDS011;8962;52.538;13.266;2022-09-09T09:14:53;7.10;;;2.40;;
17686;SDS011;8962;52.538;13.266;2022-09-09T09:17:24;7.07;;;3.35;;
17686;SDS011;8962;52.538;13.266;2022-09-09T09:19:58;5.38;;;2.45;;
17686;SDS011;8962;52.538;13.266;2022-09-09T09:22:26;4.00;;;2.15;;
17686;SDS011;8962;52.538;13.266;2022-09-09T09:25:09;3.97;;;2.08;;
17686;SDS011;8962;52.538;13.266;2022-09-09T09:27:49;7.15;;;1.92;;
17686;SDS011;8962;52.538;13.266;2022-09-09T09:30:37;7.95;;;2.22;;
17686;SDS011;8962;52.538;13.266;2022-09-09T09:33:14;9.07;;;2.78;;
17686;SDS011;8962;52.538;13.266;2022-09-09T09:35:55;8.60;;;2.33;;
17686;SDS011;8962;52.538;13.266;2022-09-09T09:38:25;5.57;;;1.80;;
17686;SDS011;8962;52.538;13.266;2022-09-09T09:40:58;5.20;;;2.70;;
17686;SDS011;8962;52.538;13.266;2022-09-09T09:43:28;5.50;;;2.40;;
17686;SDS011;8962;52.538;13.266;2022-09-09T09:46:19;8.48;;;2.25;;
17686;SDS011;8962;52.538;13.266;2022-09-09T09:48:55;4.88;;;2.00;;
17686;SDS011;8962;52.538;13.266;2022-09-09T09:51:26;6.97;;;3.45;;
17686;SDS011;8962;52.538;13.266;2022-09-09T09:54:08;4.85;;;1.80;;
17686;SDS011;8962;52.538;13.266;2022-09-09T09:56:49;4.47;;;1.80;;
17686;SDS011;8962;52.538;13.266;2022-09-09T09:59:22;5.65;;;2.13;;
17686;SDS011;8962;52.538;13.266;2022-09-09T10:02:10;8.02;;;1.95;;
17686;SDS011;8962;52.538;13.266;2022-09-09T10:04:42;5.47;;;2.00;;
17686;SDS011;8962;52.538;13.266;2022-09-09T10:07:16;6.15;;;2.03;;
17686;SDS011;8962;52.538;13.266;2022-09-09T10:09:44;6.38;;;2.03;;
17686;SDS011;8962;52.538;13.266;2022-09-09T10:12:16;8.55;;;1.90;;
17686;SDS011;8962;52.538;13.266;2022-09-09T10:15:00;11.70;;;4.93;;
17686;SDS011;8962;52.538;13.266;2022-09-09T10:17:36;16.85;;;5.15;;
17686;SDS011;8962;52.538;13.266;2022-09-09T10:20:15;11.10;;;4.63;;
17686;SDS011;8962;52.538;13.266;2022-09-09T10:22:58;4.00;;;1.90;;
17686;SDS011;8962;52.538;13.266;2022-09-09T10:25:48;3.72;;;2.30;;
17686;SDS011;8962;52.538;13.266;2022-09-09T10:28:33;3.38;;;1.70;;
17686;SDS011;8962;52.538;13.266;2022-09-09T10:31:18;6.20;;;1.95;;
17686;SDS011;8962;52.538;13.266;2022-09-09T10:33:56;6.57;;;2.00;;
17686;SDS011;8962;52.538;13.266;2022-09-09T10:36:29;6.30;;;1.80;;
17686;SDS011;8962;52.538;13.266;2022-09-09T10:38:57;5.07;;;1.70;;
17686;SDS011;8962;52.538;13.266;2022-09-09T10:41:44;9.35;;;4.32;;
17686;SDS011;8962;52.538;13.266;2022-09-09T10:44:22;5.13;;;2.33;;
17686;SDS011;8962;52.538;13.266;2022-09-09T10:47:05;5.80;;;1.92;;
17686;SDS011;8962;52.538;13.266;2022-09-09T10:50:02;6.88;;;1.90;;
17686;SDS011;8962;52.538;13.266;2022-09-09T10:52:40;4.53;;;1.80;;
17686;SDS011;8962;52.538;13.266;2022-09-09T10:55:15;3.90;;;2.00;;
17686;SDS011;8962;52.538;13.266;2022-09-09T10:57:45;43.30;;;12.85;;
17686;SDS011;8962;52.538;13.266;2022-09-09T11:00:17;9.90;;;3.10;;
17686;SDS011;8962;52.538;13.266;2022-09-09T11:02:51;10.65;;;3.83;;
17686;SDS011;8962;52.538;13.266;2022-09-09T11:05:27;3.10;;;1.70;;
17686;SDS011;8962;52.538;13.266;2022-09-09T11:07:59;6.32;;;1.92;;
17686;SDS011;8962;52.538;13.266;2022-09-09T11:10:37;7.43;;;2.65;;
17686;SDS011;8962;52.538;13.266;2022-09-09T11:13:18;8.15;;;2.70;;
17686;SDS011;8962;52.538;13.266;2022-09-09T11:15:52;3.13;;;1.77;;
17686;SDS011;8962;52.538;13.266;2022-09-09T11:18:27;7.13;;;2.25;;
17686;SDS011;8962;52.538;13.266;2022-09-09T11:21:00;6.85;;;1.92;;
17686;SDS011;8962;52.538;13.266;2022-09-09T11:23:32;6.55;;;2.13;;
17686;SDS011;8962;52.538;13.266;2022-09-09T11:26:05;4.38;;;1.85;;
17686;SDS011;8962;52.538;13.266;2022-09-09T11:28:40;3.05;;;1.52;;
17686;SDS011;8962;52.538;13.266;2022-09-09T11:31:30;8.02;;;2.58;;
17686;SDS011;8962;52.538;13.266;2022-09-09T11:34:12;3.45;;;1.67;;
17686;SDS011;8962;52.538;13.266;2022-09-09T11:36:52;2.03;;;1.15;;
17686;SDS011;8962;52.538;13.266;2022-09-09T11:39:44;2.00;;;1.48;;
17686;SDS011;8962;52.538;13.266;2022-09-09T11:42:27;3.83;;;1.80;;
17686;SDS011;8962;52.538;13.266;2022-09-09T11:44:56;3.25;;;1.40;;
17686;SDS011;8962;52.538;13.266;2022-09-09T11:47:36;3.03;;;1.30;;
17686;SDS011;8962;52.538;13.266;2022-09-09T11:50:22;3.90;;;1.60;;
17686;SDS011;8962;52.538;13.266;2022-09-09T11:53:04;5.88;;;1.27;;
17686;SDS011;8962;52.538;13.266;2022-09-09T11:56:00;4.32;;;1.60;;
17686;SDS011;8962;52.538;13.266;2022-09-09T11:58:39;2.53;;;1.15;;
17686;SDS011;8962;52.538;13.266;2022-09-09T12:01:26;4.45;;;1.70;;
17686;SDS011;8962;52.538;13.266;2022-09-09T12:04:32;3.80;;;1.60;;
17686;SDS011;8962;52.538;13.266;2022-09-09T12:07:05;3.08;;;1.25;;
17686;SDS011;8962;52.538;13.266;2022-09-09T12:09:57;7.65;;;1.65;;
17686;SDS011;8962;52.538;13.266;2022-09-09T12:12:30;6.10;;;1.52;;
17686;SDS011;8962;52.538;13.266;2022-09-09T12:15:00;3.80;;;1.27;;
17686;SDS011;8962;52.538;13.266;2022-09-09T12:17:46;4.50;;;1.30;;
17686;SDS011;8962;52.538;13.266;2022-09-09T12:20:16;3.35;;;1.30;;
17686;SDS011;8962;52.538;13.266;2022-09-09T12:22:57;3.05;;;1.45;;
17686;SDS011;8962;52.538;13.266;2022-09-09T12:25:43;3.90;;;1.67;;
17686;SDS011;8962;52.538;13.266;2022-09-09T12:28:36;5.30;;;2.13;;
17686;SDS011;8962;52.538;13.266;2022-09-09T12:34:09;5.00;;;1.60;;
17686;SDS011;8962;52.538;13.266;2022-09-09T12:36:44;6.43;;;1.48;;
17686;SDS011;8962;52.538;13.266;2022-09-09T12:39:19;8.60;;;2.20;;
17686;SDS011;8962;52.538;13.266;2022-09-09T12:41:54;3.40;;;1.42;;
17686;SDS011;8962;52.538;13.266;2022-09-09T12:44:24;2.85;;;1.27;;
17686;SDS011;8962;52.538;13.266;2022-09-09T12:46:58;4.25;;;1.63;;
17686;SDS011;8962;52.538;13.266;2022-09-09T12:49:30;10.90;;;4.28;;
17686;SDS011;8962;52.538;13.266;2022-09-09T12:52:02;6.15;;;2.00;;
17686;SDS011;8962;52.538;13.266;2022-09-09T12:54:31;7.40;;;2.20;;
17686;SDS011;8962;52.538;13.266;2022-09-09T12:57:00;41.03;;;18.98;;
17686;SDS011;8962;52.538;13.266;2022-09-09T12:59:35;18.25;;;8.00;;
17686;SDS011;8962;52.538;13.266;2022-09-09T13:02:11;8.75;;;4.00;;
17686;SDS011;8962;52.538;13.266;2022-09-09T13:04:43;9.65;;;4.82;;
17686;SDS011;8962;52.538;13.266;2022-09-09T13:07:12;5.32;;;2.38;;
17686;SDS011;8962;52.538;13.266;2022-09-09T13:09:49;3.38;;;1.60;;
17686;SDS011;8962;52.538;13.266;2022-09-09T13:12:19;9.02;;;3.95;;
17686;SDS011;8962;52.538;13.266;2022-09-09T13:14:48;8.40;;;4.05;;
17686;SDS011;8962;52.538;13.266;2022-09-09T13:17:24;4.35;;;1.83;;
17686;SDS011;8962;52.538;13.266;2022-09-09T13:19:54;26.25;;;14.63;;
17686;SDS011;8962;52.538;13.266;2022-09-09T13:22:26;8.30;;;4.57;;
17686;SDS011;8962;52.538;13.266;2022-09-09T13:25:02;15.70;;;8.13;;
17686;SDS011;8962;52.538;13.266;2022-09-09T13:27:38;6.05;;;2.38;;
17686;SDS011;8962;52.538;13.266;2022-09-09T13:30:19;5.10;;;2.00;;
17686;SDS011;8962;52.538;13.266;2022-09-09T13:32:59;4.65;;;2.00;;
17686;SDS011;8962;52.538;13.266;2022-09-09T13:35:28;4.50;;;1.75;;
17686;SDS011;8962;52.538;13.266;2022-09-09T13:37:56;8.18;;;1.88;;
17686;SDS011;8962;52.538;13.266;2022-09-09T13:40:24;4.40;;;1.80;;
17686;SDS011;8962;52.538;13.266;2022-09-09T13:42:55;4.95;;;1.73;;
17686;SDS011;8962;52.538;13.266;2022-09-09T13:45:25;4.63;;;1.77;;
17686;SDS011;8962;52.538;13.266;2022-09-09T13:47:54;4.30;;;1.40;;
17686;SDS011;8962;52.538;13.266;2022-09-09T13:50:24;7.15;;;1.65;;
17686;SDS011;8962;52.538;13.266;2022-09-09T13:52:58;4.47;;;1.60;;
17686;SDS011;8962;52.538;13.266;2022-09-09T13:55:29;6.90;;;1.55;;
17686;SDS011;8962;52.538;13.266;2022-09-09T13:58:04;5.53;;;1.45;;
17686;SDS011;8962;52.538;13.266;2022-09-09T14:00:33;5.32;;;1.50;;
17686;SDS011;8962;52.538;13.266;2022-09-09T14:03:02;3.45;;;1.48;;
17686;SDS011;8962;52.538;13.266;2022-09-09T14:05:32;4.55;;;1.67;;
17686;SDS011;8962;52.538;13.266;2022-09-09T14:08:02;4.20;;;1.90;;
17686;SDS011;8962;52.538;13.266;2022-09-09T14:10:36;7.70;;;3.30;;
17686;SDS011;8962;52.538;13.266;2022-09-09T14:13:13;3.58;;;1.48;;
17686;SDS011;8962;52.538;13.266;2022-09-09T14:15:43;5.28;;;2.03;;
17686;SDS011;8962;52.538;13.266;2022-09-09T14:18:11;10.68;;;6.28;;
17686;SDS011;8962;52.538;13.266;2022-09-09T14:20:39;4.90;;;2.65;;
17686;SDS011;8962;52.538;13.266;2022-09-09T14:23:09;6.43;;;2.97;;
17686;SDS011;8962;52.538;13.266;2022-09-09T14:25:39;4.90;;;1.30;;
17686;SDS011;8962;52.538;13.266;2022-09-09T14:28:11;2.92;;;1.13;;
17686;SDS011;8962;52.538;13.266;2022-09-09T14:30:41;4.22;;;1.33;;
17686;SDS011;8962;52.538;13.266;2022-09-09T14:33:11;4.03;;;1.33;;
17686;SDS011;8962;52.538;13.266;2022-09-09T14:35:40;2.95;;;1.20;;
17686;SDS011;8962;52.538;13.266;2022-09-09T14:38:11;6.38;;;1.60;;
17686;SDS011;8962;52.538;13.266;2022-09-09T14:40:39;7.85;;;3.78;;
17686;SDS011;8962;52.538;13.266;2022-09-09T14:43:21;4.75;;;1.83;;
17686;SDS011;8962;52.538;13.266;2022-09-09T14:45:49;3.55;;;1.55;;
17686;SDS011;8962;52.538;13.266;2022-09-09T14:48:21;3.80;;;2.00;;
17686;SDS011;8962;52.538;13.266;2022-09-09T14:50:48;4.78;;;1.50;;
17686;SDS011;8962;52.538;13.266;2022-09-09T14:53:18;4.30;;;1.45;;
17686;SDS011;8962;52.538;13.266;2022-09-09T14:55:45;3.55;;;1.30;;
17686;SDS011;8962;52.538;13.266;2022-09-09T14:58:14;4.90;;;1.52;;
17686;SDS011;8962;52.538;13.266;2022-09-09T15:00:42;2.97;;;1.30;;
17686;SDS011;8962;52.538;13.266;2022-09-09T15:03:10;4.05;;;1.50;;
17686;SDS011;8962;52.538;13.266;2022-09-09T15:05:41;6.43;;;1.55;;
17686;SDS011;8962;52.538;13.266;2022-09-09T15:08:09;4.25;;;1.60;;
17686;SDS011;8962;52.538;13.266;2022-09-09T15:10:39;4.22;;;1.70;;
17686;SDS011;8962;52.538;13.266;2022-09-09T15:13:10;9.35;;;3.30;;
17686;SDS011;8962;52.538;13.266;2022-09-09T15:15:38;8.70;;;5.75;;
17686;SDS011;8962;52.538;13.266;2022-09-09T15:18:14;4.15;;;2.00;;
17686;SDS011;8962;52.538;13.266;2022-09-09T15:20:45;13.48;;;4.97;;
17686;SDS011;8962;52.538;13.266;2022-09-09T15:23:14;187.38;;;45.65;;
17686;SDS011;8962;52.538;13.266;2022-09-09T15:25:49;18.23;;;8.23;;